sensor_id;sensor_type;location;lat;lon;timestamp;temperature;humidity
19039;DHT22;9652;49.014;12.052;2023-02-18T00:01:30;15.20;68.00
19039;DHT22;9652;49.014;12.052;2023-02-18T00:03:58;15.20;67.90
19039;DHT22;9652;49.014;12.052;2023-02-18T00:06:29;15.10;67.90
19039;DHT22;9652;49.014;12.052;2023-02-18T00:08:58;15.10;67.80
19039;DHT22;9652;49.014;12.052;2023-02-18T00:11:27;15.10;67.80
19039;DHT22;9652;49.014;12.052;2023-02-18T00:13:58;15.10;67.80
19039;DHT22;9652;49.014;12.052;2023-02-18T00:16:28;15.20;67.90
19039;DHT22;9652;49.014;12.052;2023-02-18T00:18:56;15.20;67.90
19039;DHT22;9652;49.014;12.052;2023-02-18T00:21:25;15.10;67.80
19039;DHT22;9652;49.014;12.052;2023-02-18T00:23:54;15.00;67.80
19039;DHT22;9652;49.014;12.052;2023-02-18T00:26:21;15.10;67.80
19039;DHT22;9652;49.014;12.052;2023-02-18T00:28:49;15.00;67.80
19039;DHT22;9652;49.014;12.052;2023-02-18T00:31:20;15.10;67.90
19039;DHT22;9652;49.014;12.052;2023-02-18T00:33:49;15.10;67.90
19039;DHT22;9652;49.014;12.052;2023-02-18T00:36:17;15.10;67.90
19039;DHT22;9652;49.014;12.052;2023-02-18T00:38:48;15.10;67.90
19039;DHT22;9652;49.014;12.052;2023-02-18T00:41:17;15.10;67.90
19039;DHT22;9652;49.014;12.052;2023-02-18T00:43:46;15.10;68.00
19039;DHT22;9652;49.014;12.052;2023-02-18T00:46:14;15.10;68.00
19039;DHT22;9652;49.014;12.052;2023-02-18T00:48:41;15.00;67.90
19039;DHT22;9652;49.014;12.052;2023-02-18T00:51:09;15.00;67.90
19039;DHT22;9652;49.014;12.052;2023-02-18T00:53:38;15.00;67.90
19039;DHT22;9652;49.014;12.052;2023-02-18T00:56:07;15.00;67.90
19039;DHT22;9652;49.014;12.052;2023-02-18T00:58:35;15.10;68.00
19039;DHT22;9652;49.014;12.052;2023-02-18T01:01:04;15.00;67.90
19039;DHT22;9652;49.014;12.052;2023-02-18T01:03:33;15.10;67.90
19039;DHT22;9652;49.014;12.052;2023-02-18T01:06:00;15.10;67.90
19039;DHT22;9652;49.014;12.052;2023-02-18T01:08:27;15.10;68.00
19039;DHT22;9652;49.014;12.052;2023-02-18T01:10:57;15.10;67.90
19039;DHT22;9652;49.014;12.052;2023-02-18T01:13:26;15.10;67.90
19039;DHT22;9652;49.014;12.052;2023-02-18T01:15:54;15.10;67.90
19039;DHT22;9652;49.014;12.052;2023-02-18T01:18:21;15.10;67.90
19039;DHT22;9652;49.014;12.052;2023-02-18T01:20:50;15.10;67.90
19039;DHT22;9652;49.014;12.052;2023-02-18T01:23:17;15.10;67.90
19039;DHT22;9652;49.014;12.052;2023-02-18T01:25:44;15.20;67.90
19039;DHT22;9652;49.014;12.052;2023-02-18T01:28:13;15.10;67.90
19039;DHT22;9652;49.014;12.052;2023-02-18T01:30:42;15.10;67.90
19039;DHT22;9652;49.014;12.052;2023-02-18T01:33:09;15.10;67.90
19039;DHT22;9652;49.014;12.052;2023-02-18T01:35:38;15.10;67.90
19039;DHT22;9652;49.014;12.052;2023-02-18T01:38:06;15.10;67.90
19039;DHT22;9652;49.014;12.052;2023-02-18T01:40:35;15.10;67.90
19039;DHT22;9652;49.014;12.052;2023-02-18T01:43:02;15.10;67.90
19039;DHT22;9652;49.014;12.052;2023-02-18T01:45:56;15.10;67.90
19039;DHT22;9652;49.014;12.052;2023-02-18T01:48:33;15.10;67.90
19039;DHT22;9652;49.014;12.052;2023-02-18T01:51:08;15.10;67.90
19039;DHT22;9652;49.014;12.052;2023-02-18T01:53:45;15.10;67.90
19039;DHT22;9652;49.014;12.052;2023-02-18T01:56:22;15.00;67.90
19039;DHT22;9652;49.014;12.052;2023-02-18T01:58:54;15.00;67.90
19039;DHT22;9652;49.014;12.052;2023-02-18T02:01:24;15.00;67.90
19039;DHT22;9652;49.014;12.052;2023-02-18T02:03:53;15.00;67.90
19039;DHT22;9652;49.014;12.052;2023-02-18T02:06:22;15.00;67.90
19039;DHT22;9652;49.014;12.052;2023-02-18T02:08:53;15.00;68.00
19039;DHT22;9652;49.014;12.052;2023-02-18T02:11:46;15.00;68.10
19039;DHT22;9652;49.014;12.052;2023-02-18T02:14:40;15.00;68.10
19039;DHT22;9652;49.014;12.052;2023-02-18T02:17:25;15.00;68.10
19039;DHT22;9652;49.014;12.052;2023-02-18T02:23:45;15.00;68.30
19039;DHT22;9652;49.014;12.052;2023-02-18T02:27:00;15.00;68.30
19039;DHT22;9652;49.014;12.052;2023-02-18T02:33:23;15.00;68.40
19039;DHT22;9652;49.014;12.052;2023-02-18T02:36:12;14.90;68.20
19039;DHT22;9652;49.014;12.052;2023-02-18T02:38:50;14.90;68.20
19039;DHT22;9652;49.014;12.052;2023-02-18T02:41:31;14.90;68.30
19039;DHT22;9652;49.014;12.052;2023-02-18T02:44:17;14.90;68.40
19039;DHT22;9652;49.014;12.052;2023-02-18T02:46:48;14.90;68.40
19039;DHT22;9652;49.014;12.052;2023-02-18T02:49:29;14.90;68.40
19039;DHT22;9652;49.014;12.052;2023-02-18T02:52:07;14.80;68.70
19039;DHT22;9652;49.014;12.052;2023-02-18T02:54:37;14.80;68.60
19039;DHT22;9652;49.014;12.052;2023-02-18T02:57:07;14.80;68.60
19039;DHT22;9652;49.014;12.052;2023-02-18T03:00:10;14.80;68.60
19039;DHT22;9652;49.014;12.052;2023-02-18T03:02:53;14.80;68.80
19039;DHT22;9652;49.014;12.052;2023-02-18T03:05:38;14.80;68.90
19039;DHT22;9652;49.014;12.052;2023-02-18T03:08:32;14.70;68.80
19039;DHT22;9652;49.014;12.052;2023-02-18T03:11:09;14.70;69.00
19039;DHT22;9652;49.014;12.052;2023-02-18T03:13:48;14.80;68.90
19039;DHT22;9652;49.014;12.052;2023-02-18T03:16:27;14.70;69.10
19039;DHT22;9652;49.014;12.052;2023-02-18T03:19:06;14.70;69.00
19039;DHT22;9652;49.014;12.052;2023-02-18T03:21:41;14.70;69.00
19039;DHT22;9652;49.014;12.052;2023-02-18T03:24:16;14.70;69.00
19039;DHT22;9652;49.014;12.052;2023-02-18T03:26:51;14.70;69.00
19039;DHT22;9652;49.014;12.052;2023-02-18T03:29:22;14.80;69.10
19039;DHT22;9652;49.014;12.052;2023-02-18T03:31:54;14.70;69.00
19039;DHT22;9652;49.014;12.052;2023-02-18T03:34:28;14.70;69.10
19039;DHT22;9652;49.014;12.052;2023-02-18T03:36:59;14.70;69.10
19039;DHT22;9652;49.014;12.052;2023-02-18T03:39:29;14.70;69.10
19039;DHT22;9652;49.014;12.052;2023-02-18T03:41:59;14.70;69.10
19039;DHT22;9652;49.014;12.052;2023-02-18T03:44:29;14.70;69.00
19039;DHT22;9652;49.014;12.052;2023-02-18T03:46:57;14.70;69.10
19039;DHT22;9652;49.014;12.052;2023-02-18T03:49:24;14.70;69.00
19039;DHT22;9652;49.014;12.052;2023-02-18T03:51:51;14.70;68.90
19039;DHT22;9652;49.014;12.052;2023-02-18T03:54:18;14.70;68.90
19039;DHT22;9652;49.014;12.052;2023-02-18T03:56:47;14.70;68.90
19039;DHT22;9652;49.014;12.052;2023-02-18T03:59:14;14.80;68.90
19039;DHT22;9652;49.014;12.052;2023-02-18T04:01:41;14.70;68.80
19039;DHT22;9652;49.014;12.052;2023-02-18T04:04:09;14.70;68.80
19039;DHT22;9652;49.014;12.052;2023-02-18T04:06:36;14.80;68.80
19039;DHT22;9652;49.014;12.052;2023-02-18T04:09:03;14.80;68.80
19039;DHT22;9652;49.014;12.052;2023-02-18T04:11:34;14.80;68.80
19039;DHT22;9652;49.014;12.052;2023-02-18T04:14:04;14.80;68.70
19039;DHT22;9652;49.014;12.052;2023-02-18T04:16:32;14.80;68.70
19039;DHT22;9652;49.014;12.052;2023-02-18T04:18:59;14.80;68.60
19039;DHT22;9652;49.014;12.052;2023-02-18T04:21:26;14.90;68.70
19039;DHT22;9652;49.014;12.052;2023-02-18T04:23:53;14.90;68.60
19039;DHT22;9652;49.014;12.052;2023-02-18T04:26:20;14.90;68.60
19039;DHT22;9652;49.014;12.052;2023-02-18T04:28:47;14.90;68.60
19039;DHT22;9652;49.014;12.052;2023-02-18T04:31:16;15.00;68.60
19039;DHT22;9652;49.014;12.052;2023-02-18T04:33:43;14.90;68.40
19039;DHT22;9652;49.014;12.052;2023-02-18T04:36:10;15.00;68.40
19039;DHT22;9652;49.014;12.052;2023-02-18T04:38:37;15.00;68.40
19039;DHT22;9652;49.014;12.052;2023-02-18T04:41:06;15.00;68.40
19039;DHT22;9652;49.014;12.052;2023-02-18T04:43:33;15.00;68.40
19039;DHT22;9652;49.014;12.052;2023-02-18T04:46:00;15.00;68.40
19039;DHT22;9652;49.014;12.052;2023-02-18T04:48:29;15.00;68.30
19039;DHT22;9652;49.014;12.052;2023-02-18T04:50:56;15.00;68.30
19039;DHT22;9652;49.014;12.052;2023-02-18T04:53:23;15.00;68.20
19039;DHT22;9652;49.014;12.052;2023-02-18T04:55:50;15.00;68.20
19039;DHT22;9652;49.014;12.052;2023-02-18T04:58:18;15.00;68.20
19039;DHT22;9652;49.014;12.052;2023-02-18T05:00:46;15.00;68.10
19039;DHT22;9652;49.014;12.052;2023-02-18T05:03:13;15.00;68.20
19039;DHT22;9652;49.014;12.052;2023-02-18T05:05:42;15.00;68.20
19039;DHT22;9652;49.014;12.052;2023-02-18T05:08:10;15.10;68.40
19039;DHT22;9652;49.014;12.052;2023-02-18T05:10:38;15.00;68.30
19039;DHT22;9652;49.014;12.052;2023-02-18T05:13:05;15.00;68.30
19039;DHT22;9652;49.014;12.052;2023-02-18T05:15:32;15.00;68.50
19039;DHT22;9652;49.014;12.052;2023-02-18T05:17:59;15.00;68.50
19039;DHT22;9652;49.014;12.052;2023-02-18T05:20:26;14.90;68.50
19039;DHT22;9652;49.014;12.052;2023-02-18T05:22:55;15.00;68.70
19039;DHT22;9652;49.014;12.052;2023-02-18T05:25:22;14.90;68.60
19039;DHT22;9652;49.014;12.052;2023-02-18T05:27:49;14.90;68.70
19039;DHT22;9652;49.014;12.052;2023-02-18T05:30:17;14.90;68.80
19039;DHT22;9652;49.014;12.052;2023-02-18T05:32:44;14.80;68.80
19039;DHT22;9652;49.014;12.052;2023-02-18T05:35:11;14.80;68.90
19039;DHT22;9652;49.014;12.052;2023-02-18T05:37:39;14.80;69.00
19039;DHT22;9652;49.014;12.052;2023-02-18T05:40:09;14.70;68.90
19039;DHT22;9652;49.014;12.052;2023-02-18T05:42:37;14.70;69.10
19039;DHT22;9652;49.014;12.052;2023-02-18T05:45:05;14.80;69.10
19039;DHT22;9652;49.014;12.052;2023-02-18T05:47:32;14.80;69.20
19039;DHT22;9652;49.014;12.052;2023-02-18T05:49:59;14.70;69.10
19039;DHT22;9652;49.014;12.052;2023-02-18T05:52:26;14.70;69.20
19039;DHT22;9652;49.014;12.052;2023-02-18T05:54:54;14.70;69.20
19039;DHT22;9652;49.014;12.052;2023-02-18T05:57:22;14.70;69.20
19039;DHT22;9652;49.014;12.052;2023-02-18T05:59:49;14.70;69.20
19039;DHT22;9652;49.014;12.052;2023-02-18T06:02:16;14.70;69.20
19039;DHT22;9652;49.014;12.052;2023-02-18T06:04:44;14.70;69.20
19039;DHT22;9652;49.014;12.052;2023-02-18T06:07:11;14.70;69.10
19039;DHT22;9652;49.014;12.052;2023-02-18T06:09:38;14.70;69.10
19039;DHT22;9652;49.014;12.052;2023-02-18T06:12:06;14.70;69.10
19039;DHT22;9652;49.014;12.052;2023-02-18T06:14:34;14.70;69.00
19039;DHT22;9652;49.014;12.052;2023-02-18T06:17:01;14.70;69.00
19039;DHT22;9652;49.014;12.052;2023-02-18T06:19:28;14.80;69.00
19039;DHT22;9652;49.014;12.052;2023-02-18T06:21:55;14.70;69.80
19039;DHT22;9652;49.014;12.052;2023-02-18T06:24:22;14.70;68.90
19039;DHT22;9652;49.014;12.052;2023-02-18T06:26:49;14.80;68.90
19039;DHT22;9652;49.014;12.052;2023-02-18T06:29:16;14.80;68.80
19039;DHT22;9652;49.014;12.052;2023-02-18T06:31:45;14.80;68.80
19039;DHT22;9652;49.014;12.052;2023-02-18T06:34:12;14.80;68.70
19039;DHT22;9652;49.014;12.052;2023-02-18T06:36:39;14.80;68.80
19039;DHT22;9652;49.014;12.052;2023-02-18T06:39:06;14.90;68.80
19039;DHT22;9652;49.014;12.052;2023-02-18T06:41:34;14.90;68.70
19039;DHT22;9652;49.014;12.052;2023-02-18T06:44:01;14.90;68.70
19039;DHT22;9652;49.014;12.052;2023-02-18T06:46:28;14.90;68.70
19039;DHT22;9652;49.014;12.052;2023-02-18T06:48:56;14.80;68.70
19039;DHT22;9652;49.014;12.052;2023-02-18T06:51:23;14.90;68.80
19039;DHT22;9652;49.014;12.052;2023-02-18T06:53:50;14.90;68.80
19039;DHT22;9652;49.014;12.052;2023-02-18T06:56:17;14.80;68.80
19039;DHT22;9652;49.014;12.052;2023-02-18T06:58:45;14.80;68.90
19039;DHT22;9652;49.014;12.052;2023-02-18T07:01:12;14.80;69.10
19039;DHT22;9652;49.014;12.052;2023-02-18T07:03:39;14.70;69.10
19039;DHT22;9652;49.014;12.052;2023-02-18T07:06:07;14.80;69.40
19039;DHT22;9652;49.014;12.052;2023-02-18T07:08:34;14.80;69.60
19039;DHT22;9652;49.014;12.052;2023-02-18T07:11:02;14.70;69.60
19039;DHT22;9652;49.014;12.052;2023-02-18T07:13:29;14.70;69.70
19039;DHT22;9652;49.014;12.052;2023-02-18T07:15:56;14.70;69.90
19039;DHT22;9652;49.014;12.052;2023-02-18T07:18:23;14.60;70.00
19039;DHT22;9652;49.014;12.052;2023-02-18T07:20:51;14.60;70.10
19039;DHT22;9652;49.014;12.052;2023-02-18T07:23:19;14.50;70.30
19039;DHT22;9652;49.014;12.052;2023-02-18T07:25:46;14.40;70.50
19039;DHT22;9652;49.014;12.052;2023-02-18T07:28:13;14.50;70.70
19039;DHT22;9652;49.014;12.052;2023-02-18T07:30:40;14.40;70.70
19039;DHT22;9652;49.014;12.052;2023-02-18T07:33:07;14.40;70.80
19039;DHT22;9652;49.014;12.052;2023-02-18T07:35:34;14.40;70.90
19039;DHT22;9652;49.014;12.052;2023-02-18T07:38:01;14.40;71.00
19039;DHT22;9652;49.014;12.052;2023-02-18T07:40:30;14.40;71.10
19039;DHT22;9652;49.014;12.052;2023-02-18T07:42:57;14.40;71.20
19039;DHT22;9652;49.014;12.052;2023-02-18T07:45:24;14.40;71.10
19039;DHT22;9652;49.014;12.052;2023-02-18T07:47:51;14.40;71.20
19039;DHT22;9652;49.014;12.052;2023-02-18T07:50:18;14.40;71.10
19039;DHT22;9652;49.014;12.052;2023-02-18T07:52:45;14.30;71.00
19039;DHT22;9652;49.014;12.052;2023-02-18T07:55:12;14.40;71.10
19039;DHT22;9652;49.014;12.052;2023-02-18T07:57:41;14.40;71.20
19039;DHT22;9652;49.014;12.052;2023-02-18T08:00:36;14.30;71.20
19039;DHT22;9652;49.014;12.052;2023-02-18T08:03:03;14.30;71.30
19039;DHT22;9652;49.014;12.052;2023-02-18T08:05:31;14.30;71.20
19039;DHT22;9652;49.014;12.052;2023-02-18T08:07:58;14.30;71.30
19039;DHT22;9652;49.014;12.052;2023-02-18T08:10:25;14.30;71.30
19039;DHT22;9652;49.014;12.052;2023-02-18T08:12:52;14.30;71.40
19039;DHT22;9652;49.014;12.052;2023-02-18T08:15:19;14.40;71.50
19039;DHT22;9652;49.014;12.052;2023-02-18T08:17:47;14.30;71.30
19039;DHT22;9652;49.014;12.052;2023-02-18T08:20:15;14.40;71.20
19039;DHT22;9652;49.014;12.052;2023-02-18T08:22:42;14.40;71.10
19039;DHT22;9652;49.014;12.052;2023-02-18T08:25:09;14.40;71.10
19039;DHT22;9652;49.014;12.052;2023-02-18T08:27:36;14.40;71.10
19039;DHT22;9652;49.014;12.052;2023-02-18T08:30:04;14.40;71.20
19039;DHT22;9652;49.014;12.052;2023-02-18T08:32:31;14.50;71.30
19039;DHT22;9652;49.014;12.052;2023-02-18T08:35:00;14.40;71.40
19039;DHT22;9652;49.014;12.052;2023-02-18T08:37:27;14.50;71.30
19039;DHT22;9652;49.014;12.052;2023-02-18T08:39:54;14.60;71.10
19039;DHT22;9652;49.014;12.052;2023-02-18T08:42:21;14.60;70.80
19039;DHT22;9652;49.014;12.052;2023-02-18T08:44:48;14.70;70.70
19039;DHT22;9652;49.014;12.052;2023-02-18T08:47:16;14.70;70.70
19039;DHT22;9652;49.014;12.052;2023-02-18T08:49:43;14.80;70.60
19039;DHT22;9652;49.014;12.052;2023-02-18T08:52:11;14.80;70.50
19039;DHT22;9652;49.014;12.052;2023-02-18T08:54:38;14.80;70.40
19039;DHT22;9652;49.014;12.052;2023-02-18T08:57:05;14.90;70.30
19039;DHT22;9652;49.014;12.052;2023-02-18T08:59:32;14.90;70.10
19039;DHT22;9652;49.014;12.052;2023-02-18T09:02:00;15.00;69.80
19039;DHT22;9652;49.014;12.052;2023-02-18T09:04:27;15.00;69.60
19039;DHT22;9652;49.014;12.052;2023-02-18T09:06:54;15.10;69.60
19039;DHT22;9652;49.014;12.052;2023-02-18T09:09:22;15.10;69.60
19039;DHT22;9652;49.014;12.052;2023-02-18T09:11:49;15.20;69.70
19039;DHT22;9652;49.014;12.052;2023-02-18T09:14:16;15.20;69.60
19039;DHT22;9652;49.014;12.052;2023-02-18T09:16:43;15.30;69.50
19039;DHT22;9652;49.014;12.052;2023-02-18T09:19:11;15.40;69.50
19039;DHT22;9652;49.014;12.052;2023-02-18T09:21:38;15.40;69.50
19039;DHT22;9652;49.014;12.052;2023-02-18T09:24:05;15.50;69.50
19039;DHT22;9652;49.014;12.052;2023-02-18T09:26:33;15.60;69.60
19039;DHT22;9652;49.014;12.052;2023-02-18T09:29:01;15.70;69.70
19039;DHT22;9652;49.014;12.052;2023-02-18T09:31:28;15.80;69.40
19039;DHT22;9652;49.014;12.052;2023-02-18T09:34:08;16.00;69.20
19039;DHT22;9652;49.014;12.052;2023-02-18T09:36:35;16.10;68.80
19039;DHT22;9652;49.014;12.052;2023-02-18T09:39:02;16.10;68.30
19039;DHT22;9652;49.014;12.052;2023-02-18T09:41:37;16.20;67.80
19039;DHT22;9652;49.014;12.052;2023-02-18T09:44:12;16.30;67.50
19039;DHT22;9652;49.014;12.052;2023-02-18T09:46:49;16.40;67.50
19039;DHT22;9652;49.014;12.052;2023-02-18T09:49:20;16.50;67.40
19039;DHT22;9652;49.014;12.052;2023-02-18T09:51:51;16.60;67.40
19039;DHT22;9652;49.014;12.052;2023-02-18T09:54:20;16.60;67.20
19039;DHT22;9652;49.014;12.052;2023-02-18T09:56:51;16.70;66.90
19039;DHT22;9652;49.014;12.052;2023-02-18T09:59:21;16.80;66.60
19039;DHT22;9652;49.014;12.052;2023-02-18T10:01:51;16.80;66.50
19039;DHT22;9652;49.014;12.052;2023-02-18T10:04:26;16.90;66.40
19039;DHT22;9652;49.014;12.052;2023-02-18T10:06:57;17.00;66.20
19039;DHT22;9652;49.014;12.052;2023-02-18T10:09:30;17.00;66.10
19039;DHT22;9652;49.014;12.052;2023-02-18T10:12:07;17.10;66.10
19039;DHT22;9652;49.014;12.052;2023-02-18T10:14:39;17.20;65.80
19039;DHT22;9652;49.014;12.052;2023-02-18T10:17:08;17.30;65.90
19039;DHT22;9652;49.014;12.052;2023-02-18T10:19:40;17.40;65.50
19039;DHT22;9652;49.014;12.052;2023-02-18T10:22:11;17.40;64.70
19039;DHT22;9652;49.014;12.052;2023-02-18T10:24:41;17.40;64.30
19039;DHT22;9652;49.014;12.052;2023-02-18T10:27:17;17.40;64.30
19039;DHT22;9652;49.014;12.052;2023-02-18T10:29:51;17.40;63.90
19039;DHT22;9652;49.014;12.052;2023-02-18T10:32:21;17.40;64.10
19039;DHT22;9652;49.014;12.052;2023-02-18T10:34:53;17.40;63.80
19039;DHT22;9652;49.014;12.052;2023-02-18T10:37:39;17.40;63.90
19039;DHT22;9652;49.014;12.052;2023-02-18T10:40:21;17.40;63.90
19039;DHT22;9652;49.014;12.052;2023-02-18T10:43:02;17.50;64.30
19039;DHT22;9652;49.014;12.052;2023-02-18T10:45:41;17.60;64.10
19039;DHT22;9652;49.014;12.052;2023-02-18T10:48:47;17.60;64.00
19039;DHT22;9652;49.014;12.052;2023-02-18T10:51:25;17.70;62.90
19039;DHT22;9652;49.014;12.052;2023-02-18T10:53:55;17.70;63.60
19039;DHT22;9652;49.014;12.052;2023-02-18T10:56:35;17.80;63.50
19039;DHT22;9652;49.014;12.052;2023-02-18T10:59:17;17.80;62.30
19039;DHT22;9652;49.014;12.052;2023-02-18T11:01:53;17.80;62.70
19039;DHT22;9652;49.014;12.052;2023-02-18T11:04:25;17.90;62.90
19039;DHT22;9652;49.014;12.052;2023-02-18T11:07:03;17.90;63.00
19039;DHT22;9652;49.014;12.052;2023-02-18T11:09:39;18.00;62.70
19039;DHT22;9652;49.014;12.052;2023-02-18T11:12:13;18.00;61.90
19039;DHT22;9652;49.014;12.052;2023-02-18T11:14:46;18.10;61.80
19039;DHT22;9652;49.014;12.052;2023-02-18T11:17:19;18.10;61.90
19039;DHT22;9652;49.014;12.052;2023-02-18T11:19:53;18.10;61.90
19039;DHT22;9652;49.014;12.052;2023-02-18T11:22:23;18.10;61.70
19039;DHT22;9652;49.014;12.052;2023-02-18T11:24:56;18.10;61.60
19039;DHT22;9652;49.014;12.052;2023-02-18T11:27:27;18.10;61.20
19039;DHT22;9652;49.014;12.052;2023-02-18T11:30:05;18.10;61.30
19039;DHT22;9652;49.014;12.052;2023-02-18T11:32:42;18.00;61.00
19039;DHT22;9652;49.014;12.052;2023-02-18T11:35:16;18.10;61.30
19039;DHT22;9652;49.014;12.052;2023-02-18T11:37:45;18.00;60.70
19039;DHT22;9652;49.014;12.052;2023-02-18T11:40:21;18.00;61.50
19039;DHT22;9652;49.014;12.052;2023-02-18T11:43:04;18.10;61.50
19039;DHT22;9652;49.014;12.052;2023-02-18T11:45:39;18.10;61.40
19039;DHT22;9652;49.014;12.052;2023-02-18T11:48:11;18.20;61.60
19039;DHT22;9652;49.014;12.052;2023-02-18T11:50:42;18.30;62.00
19039;DHT22;9652;49.014;12.052;2023-02-18T11:53:26;18.40;61.90
19039;DHT22;9652;49.014;12.052;2023-02-18T11:55:58;18.50;60.50
19039;DHT22;9652;49.014;12.052;2023-02-18T11:58:28;18.70;61.20
19039;DHT22;9652;49.014;12.052;2023-02-18T12:01:05;18.80;61.30
19039;DHT22;9652;49.014;12.052;2023-02-18T12:03:42;19.00;59.90
19039;DHT22;9652;49.014;12.052;2023-02-18T12:06:21;19.10;59.70
19039;DHT22;9652;49.014;12.052;2023-02-18T12:08:54;19.30;58.40
19039;DHT22;9652;49.014;12.052;2023-02-18T12:11:29;19.40;58.70
19039;DHT22;9652;49.014;12.052;2023-02-18T12:13:59;19.40;58.40
19039;DHT22;9652;49.014;12.052;2023-02-18T12:16:34;19.50;57.80
19039;DHT22;9652;49.014;12.052;2023-02-18T12:19:45;19.50;57.10
19039;DHT22;9652;49.014;12.052;2023-02-18T12:22:30;19.60;56.30
19039;DHT22;9652;49.014;12.052;2023-02-18T12:25:21;19.50;56.00
19039;DHT22;9652;49.014;12.052;2023-02-18T12:28:00;19.50;55.80
19039;DHT22;9652;49.014;12.052;2023-02-18T12:33:47;19.40;55.50
19039;DHT22;9652;49.014;12.052;2023-02-18T12:36:34;19.40;55.50
19039;DHT22;9652;49.014;12.052;2023-02-18T12:39:17;19.40;55.60
19039;DHT22;9652;49.014;12.052;2023-02-18T12:42:24;19.40;55.10
19039;DHT22;9652;49.014;12.052;2023-02-18T12:45:14;19.40;55.20
19039;DHT22;9652;49.014;12.052;2023-02-18T12:48:08;19.30;54.60
19039;DHT22;9652;49.014;12.052;2023-02-18T12:51:03;19.30;53.50
19039;DHT22;9652;49.014;12.052;2023-02-18T12:54:00;19.20;53.80
19039;DHT22;9652;49.014;12.052;2023-02-18T12:57:00;19.10;54.40
19039;DHT22;9652;49.014;12.052;2023-02-18T13:00:14;19.00;54.70
19039;DHT22;9652;49.014;12.052;2023-02-18T13:06:32;18.90;54.10
19039;DHT22;9652;49.014;12.052;2023-02-18T13:09:20;18.80;54.30
19039;DHT22;9652;49.014;12.052;2023-02-18T13:12:07;18.80;55.00
19039;DHT22;9652;49.014;12.052;2023-02-18T13:14:44;18.70;54.70
19039;DHT22;9652;49.014;12.052;2023-02-18T13:17:17;18.70;54.80
19039;DHT22;9652;49.014;12.052;2023-02-18T13:19:49;18.70;55.00
19039;DHT22;9652;49.014;12.052;2023-02-18T13:22:23;18.70;55.10
19039;DHT22;9652;49.014;12.052;2023-02-18T13:24:55;18.70;54.90
19039;DHT22;9652;49.014;12.052;2023-02-18T13:27:30;18.70;55.10
19039;DHT22;9652;49.014;12.052;2023-02-18T13:30:15;18.70;54.90
19039;DHT22;9652;49.014;12.052;2023-02-18T13:32:53;18.60;54.80
19039;DHT22;9652;49.014;12.052;2023-02-18T13:35:31;18.60;54.80
19039;DHT22;9652;49.014;12.052;2023-02-18T13:38:25;18.60;54.80
19039;DHT22;9652;49.014;12.052;2023-02-18T13:41:04;18.60;54.70
19039;DHT22;9652;49.014;12.052;2023-02-18T13:43:34;18.60;54.90
19039;DHT22;9652;49.014;12.052;2023-02-18T13:46:10;18.60;54.90
19039;DHT22;9652;49.014;12.052;2023-02-18T13:48:44;18.50;54.70
19039;DHT22;9652;49.014;12.052;2023-02-18T13:51:15;18.50;55.00
19039;DHT22;9652;49.014;12.052;2023-02-18T13:53:59;18.50;55.20
19039;DHT22;9652;49.014;12.052;2023-02-18T13:56:31;18.50;55.20
19039;DHT22;9652;49.014;12.052;2023-02-18T13:59:07;18.40;55.20
19039;DHT22;9652;49.014;12.052;2023-02-18T14:01:40;18.40;55.20
19039;DHT22;9652;49.014;12.052;2023-02-18T14:07:45;18.40;54.90
19039;DHT22;9652;49.014;12.052;2023-02-18T14:10:30;18.40;55.10
19039;DHT22;9652;49.014;12.052;2023-02-18T14:13:18;18.30;55.00
19039;DHT22;9652;49.014;12.052;2023-02-18T14:16:05;18.20;55.00
19039;DHT22;9652;49.014;12.052;2023-02-18T14:18:54;18.30;55.70
19039;DHT22;9652;49.014;12.052;2023-02-18T14:21:46;18.20;55.30
19039;DHT22;9652;49.014;12.052;2023-02-18T14:24:46;18.30;55.30
19039;DHT22;9652;49.014;12.052;2023-02-18T14:27:16;18.30;54.90
19039;DHT22;9652;49.014;12.052;2023-02-18T14:29:43;18.20;55.30
19039;DHT22;9652;49.014;12.052;2023-02-18T14:32:11;18.30;55.50
19039;DHT22;9652;49.014;12.052;2023-02-18T14:34:52;18.30;55.40
19039;DHT22;9652;49.014;12.052;2023-02-18T14:41:33;18.40;54.40
19039;DHT22;9652;49.014;12.052;2023-02-18T14:44:32;18.40;53.80
19039;DHT22;9652;49.014;12.052;2023-02-18T14:47:27;18.40;54.00
19039;DHT22;9652;49.014;12.052;2023-02-18T14:50:00;18.40;54.00
19039;DHT22;9652;49.014;12.052;2023-02-18T14:52:30;18.40;54.50
19039;DHT22;9652;49.014;12.052;2023-02-18T14:55:01;18.30;54.40
19039;DHT22;9652;49.014;12.052;2023-02-18T14:57:40;18.30;54.30
19039;DHT22;9652;49.014;12.052;2023-02-18T15:00:15;18.20;54.00
19039;DHT22;9652;49.014;12.052;2023-02-18T15:02:47;18.20;54.20
19039;DHT22;9652;49.014;12.052;2023-02-18T15:05:18;18.20;54.30
19039;DHT22;9652;49.014;12.052;2023-02-18T15:07:58;18.10;54.20
19039;DHT22;9652;49.014;12.052;2023-02-18T15:10:38;18.10;53.90
19039;DHT22;9652;49.014;12.052;2023-02-18T15:13:13;18.10;54.00
19039;DHT22;9652;49.014;12.052;2023-02-18T15:15:45;18.00;54.00
19039;DHT22;9652;49.014;12.052;2023-02-18T15:18:21;18.00;54.20
19039;DHT22;9652;49.014;12.052;2023-02-18T15:20:53;17.90;54.30
19039;DHT22;9652;49.014;12.052;2023-02-18T15:23:21;17.90;54.10
19039;DHT22;9652;49.014;12.052;2023-02-18T15:25:50;17.80;54.50
19039;DHT22;9652;49.014;12.052;2023-02-18T15:28:25;17.70;54.50
19039;DHT22;9652;49.014;12.052;2023-02-18T15:30:55;17.70;54.30
19039;DHT22;9652;49.014;12.052;2023-02-18T15:33:24;17.70;54.80
19039;DHT22;9652;49.014;12.052;2023-02-18T15:35:59;17.60;54.80
19039;DHT22;9652;49.014;12.052;2023-02-18T15:38:28;17.60;54.80
19039;DHT22;9652;49.014;12.052;2023-02-18T15:40:55;17.50;55.00
19039;DHT22;9652;49.014;12.052;2023-02-18T15:43:24;17.50;55.10
19039;DHT22;9652;49.014;12.052;2023-02-18T15:45:54;17.50;55.10
19039;DHT22;9652;49.014;12.052;2023-02-18T15:48:28;17.50;55.10
19039;DHT22;9652;49.014;12.052;2023-02-18T15:51:02;17.40;55.10
19039;DHT22;9652;49.014;12.052;2023-02-18T15:53:37;17.40;55.10
19039;DHT22;9652;49.014;12.052;2023-02-18T15:56:09;17.40;55.20
19039;DHT22;9652;49.014;12.052;2023-02-18T15:58:42;17.30;55.20
19039;DHT22;9652;49.014;12.052;2023-02-18T16:01:25;17.30;55.20
19039;DHT22;9652;49.014;12.052;2023-02-18T16:03:54;17.30;55.30
19039;DHT22;9652;49.014;12.052;2023-02-18T16:06:24;17.20;55.40
19039;DHT22;9652;49.014;12.052;2023-02-18T16:08:59;17.20;55.60
19039;DHT22;9652;49.014;12.052;2023-02-18T16:11:31;17.20;55.60
19039;DHT22;9652;49.014;12.052;2023-02-18T16:14:26;17.10;55.60
19039;DHT22;9652;49.014;12.052;2023-02-18T16:17:13;17.10;55.60
19039;DHT22;9652;49.014;12.052;2023-02-18T16:19:48;17.10;55.70
19039;DHT22;9652;49.014;12.052;2023-02-18T16:22:24;17.00;55.80
19039;DHT22;9652;49.014;12.052;2023-02-18T16:24:59;17.00;55.90
19039;DHT22;9652;49.014;12.052;2023-02-18T16:27:31;17.00;56.00